sensor_id;sensor_type;location;lat;lon;timestamp;P1;durP1;ratioP1;P2;durP2;ratioP2
10041;SDS011;5061;49.068;12.058;2023-03-31T00:01:45;2.20;;;2.00;;
10041;SDS011;5061;49.068;12.058;2023-03-31T00:05:07;1.67;;;1.57;;
10041;SDS011;5061;49.068;12.058;2023-03-31T00:08:29;1.60;;;1.50;;
10041;SDS011;5061;49.068;12.058;2023-03-31T00:11:54;1.73;;;1.37;;
10041;SDS011;5061;49.068;12.058;2023-03-31T00:15:14;1.40;;;1.30;;
10041;SDS011;5061;49.068;12.058;2023-03-31T00:18:35;2.60;;;1.50;;
10041;SDS011;5061;49.068;12.058;2023-03-31T00:21:56;2.13;;;1.60;;
10041;SDS011;5061;49.068;12.058;2023-03-31T00:25:21;5.93;;;2.50;;
10041;SDS011;5061;49.068;12.058;2023-03-31T00:28:41;3.93;;;2.03;;
10041;SDS011;5061;49.068;12.058;2023-03-31T00:32:02;2.73;;;2.10;;
10041;SDS011;5061;49.068;12.058;2023-03-31T00:35:22;2.03;;;1.83;;
10041;SDS011;5061;49.068;12.058;2023-03-31T00:38:43;3.50;;;2.10;;
10041;SDS011;5061;49.068;12.058;2023-03-31T00:42:05;3.37;;;1.80;;
10041;SDS011;5061;49.068;12.058;2023-03-31T00:45:28;3.20;;;2.30;;
10041;SDS011;5061;49.068;12.058;2023-03-31T00:48:51;2.83;;;2.00;;
10041;SDS011;5061;49.068;12.058;2023-03-31T00:52:18;2.50;;;2.00;;
10041;SDS011;5061;49.068;12.058;2023-03-31T00:55:51;2.07;;;1.83;;
10041;SDS011;5061;49.068;12.058;2023-03-31T00:59:14;7.13;;;2.20;;
10041;SDS011;5061;49.068;12.058;2023-03-31T01:02:35;2.87;;;1.50;;
10041;SDS011;5061;49.068;12.058;2023-03-31T01:06:01;1.80;;;1.60;;
10041;SDS011;5061;49.068;12.058;2023-03-31T01:09:24;2.90;;;1.80;;
10041;SDS011;5061;49.068;12.058;2023-03-31T01:12:50;3.20;;;2.27;;
10041;SDS011;5061;49.068;12.058;2023-03-31T01:16:13;3.00;;;2.23;;
10041;SDS011;5061;49.068;12.058;2023-03-31T01:41:27;6.23;;;3.37;;
10041;SDS011;5061;49.068;12.058;2023-03-31T01:48:26;4.37;;;2.70;;
10041;SDS011;5061;49.068;12.058;2023-03-31T01:52:12;2.70;;;2.50;;
10041;SDS011;5061;49.068;12.058;2023-03-31T01:55:51;3.33;;;2.10;;
10041;SDS011;5061;49.068;12.058;2023-03-31T01:59:38;3.07;;;2.50;;
10041;SDS011;5061;49.068;12.058;2023-03-31T02:06:33;2.93;;;2.50;;
10041;SDS011;5061;49.068;12.058;2023-03-31T02:09:59;2.70;;;2.27;;
10041;SDS011;5061;49.068;12.058;2023-03-31T02:13:22;3.00;;;2.67;;
10041;SDS011;5061;49.068;12.058;2023-03-31T02:16:46;3.60;;;2.20;;
10041;SDS011;5061;49.068;12.058;2023-03-31T02:20:13;7.20;;;2.50;;
10041;SDS011;5061;49.068;12.058;2023-03-31T02:23:37;3.70;;;2.70;;
10041;SDS011;5061;49.068;12.058;2023-03-31T02:34:31;3.57;;;2.90;;
10041;SDS011;5061;49.068;12.058;2023-03-31T02:37:52;2.60;;;2.27;;
10041;SDS011;5061;49.068;12.058;2023-03-31T02:41:13;1.93;;;1.73;;
10041;SDS011;5061;49.068;12.058;2023-03-31T02:44:34;2.40;;;2.20;;
10041;SDS011;5061;49.068;12.058;2023-03-31T02:47:55;2.83;;;2.23;;
10041;SDS011;5061;49.068;12.058;2023-03-31T02:51:27;3.97;;;2.47;;
10041;SDS011;5061;49.068;12.058;2023-03-31T03:06:10;3.40;;;2.67;;
10041;SDS011;5061;49.068;12.058;2023-03-31T03:13:30;3.33;;;2.60;;
10041;SDS011;5061;49.068;12.058;2023-03-31T03:17:53;3.20;;;2.73;;
10041;SDS011;5061;49.068;12.058;2023-03-31T03:21:15;5.70;;;2.40;;
10041;SDS011;5061;49.068;12.058;2023-03-31T03:24:36;5.70;;;2.97;;
10041;SDS011;5061;49.068;12.058;2023-03-31T03:27:59;4.33;;;2.93;;
10041;SDS011;5061;49.068;12.058;2023-03-31T03:31:21;3.03;;;2.70;;
10041;SDS011;5061;49.068;12.058;2023-03-31T03:34:43;4.80;;;2.60;;
10041;SDS011;5061;49.068;12.058;2023-03-31T03:38:04;2.97;;;2.67;;
10041;SDS011;5061;49.068;12.058;2023-03-31T03:41:25;5.03;;;2.57;;
10041;SDS011;5061;49.068;12.058;2023-03-31T03:44:46;3.33;;;2.80;;
10041;SDS011;5061;49.068;12.058;2023-03-31T03:48:07;3.70;;;2.50;;
10041;SDS011;5061;49.068;12.058;2023-03-31T03:51:28;5.00;;;3.00;;
10041;SDS011;5061;49.068;12.058;2023-03-31T03:54:49;5.30;;;3.40;;
10041;SDS011;5061;49.068;12.058;2023-03-31T03:58:11;3.57;;;2.90;;
10041;SDS011;5061;49.068;12.058;2023-03-31T04:01:32;4.23;;;2.73;;
10041;SDS011;5061;49.068;12.058;2023-03-31T04:04:53;7.43;;;3.60;;
10041;SDS011;5061;49.068;12.058;2023-03-31T04:08:15;4.20;;;2.60;;
10041;SDS011;5061;49.068;12.058;2023-03-31T04:11:37;3.30;;;2.90;;
10041;SDS011;5061;49.068;12.058;2023-03-31T04:14:58;4.33;;;2.70;;
10041;SDS011;5061;49.068;12.058;2023-03-31T04:18:19;4.10;;;3.40;;
10041;SDS011;5061;49.068;12.058;2023-03-31T04:21:45;5.07;;;3.53;;
10041;SDS011;5061;49.068;12.058;2023-03-31T04:25:10;8.40;;;3.73;;
10041;SDS011;5061;49.068;12.058;2023-03-31T04:28:41;3.90;;;3.50;;
10041;SDS011;5061;49.068;12.058;2023-03-31T04:32:08;6.63;;;4.23;;
10041;SDS011;5061;49.068;12.058;2023-03-31T04:35:34;4.57;;;3.90;;
10041;SDS011;5061;49.068;12.058;2023-03-31T04:39:16;4.77;;;3.30;;
10041;SDS011;5061;49.068;12.058;2023-03-31T04:42:49;6.30;;;4.40;;
10041;SDS011;5061;49.068;12.058;2023-03-31T04:46:11;4.17;;;3.30;;
10041;SDS011;5061;49.068;12.058;2023-03-31T04:49:37;4.00;;;3.20;;
10041;SDS011;5061;49.068;12.058;2023-03-31T04:52:59;4.43;;;3.30;;
10041;SDS011;5061;49.068;12.058;2023-03-31T04:56:21;6.07;;;4.33;;
10041;SDS011;5061;49.068;12.058;2023-03-31T04:59:42;4.47;;;3.67;;
10041;SDS011;5061;49.068;12.058;2023-03-31T05:03:03;5.50;;;3.60;;
10041;SDS011;5061;49.068;12.058;2023-03-31T05:06:24;4.40;;;3.20;;
10041;SDS011;5061;49.068;12.058;2023-03-31T05:09:45;3.70;;;3.00;;
10041;SDS011;5061;49.068;12.058;2023-03-31T05:13:09;4.73;;;3.27;;
10041;SDS011;5061;49.068;12.058;2023-03-31T05:16:30;3.87;;;3.47;;
10041;SDS011;5061;49.068;12.058;2023-03-31T05:19:52;3.33;;;3.03;;
10041;SDS011;5061;49.068;12.058;2023-03-31T05:23:16;8.33;;;4.50;;
10041;SDS011;5061;49.068;12.058;2023-03-31T05:26:37;3.67;;;3.20;;
10041;SDS011;5061;49.068;12.058;2023-03-31T05:30:00;4.23;;;3.40;;
10041;SDS011;5061;49.068;12.058;2023-03-31T05:33:23;5.00;;;3.70;;
10041;SDS011;5061;49.068;12.058;2023-03-31T05:36:45;10.03;;;5.20;;
10041;SDS011;5061;49.068;12.058;2023-03-31T05:40:13;6.50;;;4.20;;
10041;SDS011;5061;49.068;12.058;2023-03-31T05:43:34;9.30;;;5.73;;
10041;SDS011;5061;49.068;12.058;2023-03-31T05:47:02;5.97;;;4.20;;
10041;SDS011;5061;49.068;12.058;2023-03-31T05:50:23;6.63;;;4.30;;
10041;SDS011;5061;49.068;12.058;2023-03-31T05:53:44;5.13;;;4.23;;
10041;SDS011;5061;49.068;12.058;2023-03-31T05:57:06;6.37;;;4.20;;
10041;SDS011;5061;49.068;12.058;2023-03-31T06:00:27;7.67;;;5.80;;
10041;SDS011;5061;49.068;12.058;2023-03-31T06:03:52;8.53;;;4.57;;
10041;SDS011;5061;49.068;12.058;2023-03-31T06:07:16;9.27;;;5.17;;
10041;SDS011;5061;49.068;12.058;2023-03-31T06:10:41;7.47;;;5.37;;
10041;SDS011;5061;49.068;12.058;2023-03-31T06:14:02;6.93;;;5.27;;
10041;SDS011;5061;49.068;12.058;2023-03-31T06:17:25;10.20;;;5.20;;
10041;SDS011;5061;49.068;12.058;2023-03-31T06:20:47;7.80;;;5.00;;
10041;SDS011;5061;49.068;12.058;2023-03-31T06:24:12;9.10;;;6.07;;
10041;SDS011;5061;49.068;12.058;2023-03-31T06:27:34;8.93;;;5.77;;
10041;SDS011;5061;49.068;12.058;2023-03-31T06:31:00;6.50;;;4.60;;
10041;SDS011;5061;49.068;12.058;2023-03-31T06:34:22;8.90;;;5.03;;
10041;SDS011;5061;49.068;12.058;2023-03-31T06:37:44;8.23;;;5.40;;
10041;SDS011;5061;49.068;12.058;2023-03-31T06:41:08;8.43;;;4.70;;
10041;SDS011;5061;49.068;12.058;2023-03-31T06:44:32;6.97;;;4.60;;
10041;SDS011;5061;49.068;12.058;2023-03-31T06:47:53;8.03;;;5.57;;
10041;SDS011;5061;49.068;12.058;2023-03-31T06:51:14;12.87;;;6.53;;
10041;SDS011;5061;49.068;12.058;2023-03-31T06:54:38;9.60;;;6.03;;
10041;SDS011;5061;49.068;12.058;2023-03-31T06:58:00;10.10;;;5.70;;
10041;SDS011;5061;49.068;12.058;2023-03-31T07:01:21;7.50;;;5.40;;
10041;SDS011;5061;49.068;12.058;2023-03-31T07:04:43;7.77;;;5.50;;
10041;SDS011;5061;49.068;12.058;2023-03-31T07:08:05;5.10;;;4.33;;
10041;SDS011;5061;49.068;12.058;2023-03-31T07:11:26;5.87;;;4.10;;
10041;SDS011;5061;49.068;12.058;2023-03-31T07:14:46;6.53;;;4.77;;
10041;SDS011;5061;49.068;12.058;2023-03-31T07:18:08;4.50;;;3.93;;
10041;SDS011;5061;49.068;12.058;2023-03-31T07:21:29;4.27;;;3.53;;
10041;SDS011;5061;49.068;12.058;2023-03-31T07:24:50;4.10;;;3.20;;
10041;SDS011;5061;49.068;12.058;2023-03-31T07:28:11;8.63;;;4.27;;
10041;SDS011;5061;49.068;12.058;2023-03-31T07:31:32;4.00;;;3.60;;
10041;SDS011;5061;49.068;12.058;2023-03-31T07:34:53;6.63;;;3.97;;
10041;SDS011;5061;49.068;12.058;2023-03-31T07:38:14;5.20;;;3.70;;
10041;SDS011;5061;49.068;12.058;2023-03-31T07:41:35;6.33;;;3.90;;
10041;SDS011;5061;49.068;12.058;2023-03-31T07:44:56;4.70;;;3.90;;
10041;SDS011;5061;49.068;12.058;2023-03-31T07:48:18;7.67;;;5.30;;
10041;SDS011;5061;49.068;12.058;2023-03-31T07:51:40;7.30;;;5.10;;
10041;SDS011;5061;49.068;12.058;2023-03-31T07:55:01;6.50;;;4.30;;
10041;SDS011;5061;49.068;12.058;2023-03-31T07:58:23;5.00;;;4.13;;
10041;SDS011;5061;49.068;12.058;2023-03-31T08:01:44;7.20;;;4.80;;
10041;SDS011;5061;49.068;12.058;2023-03-31T08:05:08;6.40;;;4.40;;
10041;SDS011;5061;49.068;12.058;2023-03-31T08:08:30;6.10;;;4.50;;
10041;SDS011;5061;49.068;12.058;2023-03-31T08:11:52;7.30;;;5.43;;
10041;SDS011;5061;49.068;12.058;2023-03-31T08:15:13;6.17;;;4.60;;
10041;SDS011;5061;49.068;12.058;2023-03-31T08:18:34;7.87;;;5.10;;
10041;SDS011;5061;49.068;12.058;2023-03-31T08:21:55;6.20;;;4.70;;
10041;SDS011;5061;49.068;12.058;2023-03-31T08:25:16;4.90;;;4.17;;
10041;SDS011;5061;49.068;12.058;2023-03-31T08:28:46;5.23;;;4.37;;
10041;SDS011;5061;49.068;12.058;2023-03-31T08:32:08;6.07;;;3.77;;
10041;SDS011;5061;49.068;12.058;2023-03-31T08:35:29;5.60;;;4.40;;
10041;SDS011;5061;49.068;12.058;2023-03-31T08:38:50;3.90;;;3.50;;
10041;SDS011;5061;49.068;12.058;2023-03-31T08:45:40;5.73;;;4.80;;
10041;SDS011;5061;49.068;12.058;2023-03-31T08:49:02;5.17;;;4.30;;
10041;SDS011;5061;49.068;12.058;2023-03-31T08:52:30;5.20;;;4.13;;
10041;SDS011;5061;49.068;12.058;2023-03-31T08:55:55;4.50;;;3.80;;
10041;SDS011;5061;49.068;12.058;2023-03-31T08:59:25;9.53;;;5.77;;
10041;SDS011;5061;49.068;12.058;2023-03-31T09:03:02;6.40;;;4.97;;
10041;SDS011;5061;49.068;12.058;2023-03-31T09:20:36;3.60;;;3.27;;
10041;SDS011;5061;49.068;12.058;2023-03-31T09:27:25;3.13;;;2.83;;
10041;SDS011;5061;49.068;12.058;2023-03-31T09:30:51;3.40;;;3.10;;
10041;SDS011;5061;49.068;12.058;2023-03-31T09:34:24;3.93;;;3.13;;
10041;SDS011;5061;49.068;12.058;2023-03-31T09:37:48;3.53;;;3.10;;
10041;SDS011;5061;49.068;12.058;2023-03-31T09:41:09;3.97;;;3.67;;
10041;SDS011;5061;49.068;12.058;2023-03-31T09:48:06;3.17;;;2.57;;
10041;SDS011;5061;49.068;12.058;2023-03-31T09:51:35;3.03;;;2.83;;
10041;SDS011;5061;49.068;12.058;2023-03-31T09:55:03;5.10;;;3.77;;
10041;SDS011;5061;49.068;12.058;2023-03-31T09:58:41;3.87;;;3.50;;
10041;SDS011;5061;49.068;12.058;2023-03-31T10:02:28;6.40;;;4.63;;
10041;SDS011;5061;49.068;12.058;2023-03-31T10:05:56;5.37;;;4.57;;
10041;SDS011;5061;49.068;12.058;2023-03-31T10:09:19;5.70;;;4.73;;
10041;SDS011;5061;49.068;12.058;2023-03-31T10:12:48;7.93;;;4.90;;
10041;SDS011;5061;49.068;12.058;2023-03-31T10:16:29;7.27;;;5.50;;
10041;SDS011;5061;49.068;12.058;2023-03-31T10:23:26;5.20;;;4.53;;
10041;SDS011;5061;49.068;12.058;2023-03-31T10:26:51;5.27;;;4.40;;
10041;SDS011;5061;49.068;12.058;2023-03-31T10:30:27;6.83;;;5.17;;
10041;SDS011;5061;49.068;12.058;2023-03-31T10:34:00;6.17;;;4.40;;
10041;SDS011;5061;49.068;12.058;2023-03-31T10:37:30;4.30;;;3.90;;
10041;SDS011;5061;49.068;12.058;2023-03-31T10:40:54;9.13;;;6.17;;
10041;SDS011;5061;49.068;12.058;2023-03-31T10:44:37;7.60;;;4.80;;
10041;SDS011;5061;49.068;12.058;2023-03-31T10:47:59;7.73;;;5.60;;
10041;SDS011;5061;49.068;12.058;2023-03-31T10:51:27;7.50;;;6.03;;
10041;SDS011;5061;49.068;12.058;2023-03-31T10:54:54;7.80;;;5.00;;
10041;SDS011;5061;49.068;12.058;2023-03-31T11:05:51;4.70;;;3.47;;
10041;SDS011;5061;49.068;12.058;2023-03-31T11:09:45;3.97;;;2.90;;
10041;SDS011;5061;49.068;12.058;2023-03-31T11:16:50;5.00;;;3.27;;
10041;SDS011;5061;49.068;12.058;2023-03-31T11:24:40;3.30;;;2.63;;
10041;SDS011;5061;49.068;12.058;2023-03-31T11:39:50;4.93;;;2.40;;
10041;SDS011;5061;49.068;12.058;2023-03-31T11:46:47;4.90;;;2.10;;
10041;SDS011;5061;49.068;12.058;2023-03-31T11:50:21;2.20;;;2.00;;
10041;SDS011;5061;49.068;12.058;2023-03-31T11:53:48;7.77;;;1.97;;
10041;SDS011;5061;49.068;12.058;2023-03-31T11:57:14;6.43;;;2.30;;
10041;SDS011;5061;49.068;12.058;2023-03-31T12:00:46;2.70;;;1.90;;
10041;SDS011;5061;49.068;12.058;2023-03-31T12:04:20;2.93;;;1.87;;
10041;SDS011;5061;49.068;12.058;2023-03-31T12:08:16;2.70;;;1.60;;
10041;SDS011;5061;49.068;12.058;2023-03-31T12:22:56;3.30;;;1.60;;
10041;SDS011;5061;49.068;12.058;2023-03-31T12:26:39;4.40;;;1.87;;
10041;SDS011;5061;49.068;12.058;2023-03-31T12:33:40;2.53;;;2.00;;
10041;SDS011;5061;49.068;12.058;2023-03-31T12:37:19;2.87;;;1.60;;
10041;SDS011;5061;49.068;12.058;2023-03-31T12:41:38;2.90;;;1.63;;
10041;SDS011;5061;49.068;12.058;2023-03-31T12:48:28;2.07;;;1.10;;
10041;SDS011;5061;49.068;12.058;2023-03-31T12:55:30;5.37;;;1.90;;
10041;SDS011;5061;49.068;12.058;2023-03-31T12:58:51;3.30;;;1.37;;
10041;SDS011;5061;49.068;12.058;2023-03-31T13:08:59;2.53;;;1.27;;
10041;SDS011;5061;49.068;12.058;2023-03-31T13:12:40;2.40;;;1.30;;
10041;SDS011;5061;49.068;12.058;2023-03-31T13:16:17;1.80;;;1.30;;
10041;SDS011;5061;49.068;12.058;2023-03-31T13:19:40;3.93;;;1.63;;
10041;SDS011;5061;49.068;12.058;2023-03-31T13:29:51;1.57;;;1.17;;
10041;SDS011;5061;49.068;12.058;2023-03-31T13:33:13;3.43;;;1.37;;
10041;SDS011;5061;49.068;12.058;2023-03-31T13:36:48;1.97;;;1.37;;
10041;SDS011;5061;49.068;12.058;2023-03-31T13:48:03;3.87;;;0.93;;
10041;SDS011;5061;49.068;12.058;2023-03-31T13:51:57;1.77;;;0.80;;
10041;SDS011;5061;49.068;12.058;2023-03-31T13:55:23;1.00;;;0.90;;
10041;SDS011;5061;49.068;12.058;2023-03-31T13:59:22;1.33;;;1.23;;
10041;SDS011;5061;49.068;12.058;2023-03-31T14:09:59;0.93;;;0.73;;
10041;SDS011;5061;49.068;12.058;2023-03-31T14:13:23;2.20;;;0.70;;
10041;SDS011;5061;49.068;12.058;2023-03-31T14:16:45;1.43;;;1.17;;
10041;SDS011;5061;49.068;12.058;2023-03-31T14:38:29;0.80;;;0.77;;
10041;SDS011;5061;49.068;12.058;2023-03-31T14:41:54;0.83;;;0.70;;
10041;SDS011;5061;49.068;12.058;2023-03-31T14:45:19;1.77;;;0.80;;
10041;SDS011;5061;49.068;12.058;2023-03-31T14:48:44;2.00;;;1.20;;
10041;SDS011;5061;49.068;12.058;2023-03-31T14:52:16;1.13;;;0.90;;
10041;SDS011;5061;49.068;12.058;2023-03-31T14:55:40;1.50;;;1.00;;
10041;SDS011;5061;49.068;12.058;2023-03-31T14:59:01;3.10;;;1.50;;
10041;SDS011;5061;49.068;12.058;2023-03-31T15:02:31;4.00;;;1.30;;
10041;SDS011;5061;49.068;12.058;2023-03-31T15:05:56;1.10;;;0.80;;
10041;SDS011;5061;49.068;12.058;2023-03-31T15:09:31;2.50;;;1.20;;
10041;SDS011;5061;49.068;12.058;2023-03-31T15:12:53;1.83;;;0.90;;
10041;SDS011;5061;49.068;12.058;2023-03-31T15:20:24;3.73;;;1.20;;
10041;SDS011;5061;49.068;12.058;2023-03-31T15:23:44;2.80;;;1.23;;
10041;SDS011;5061;49.068;12.058;2023-03-31T15:27:09;1.40;;;1.10;;
10041;SDS011;5061;49.068;12.058;2023-03-31T15:30:43;3.13;;;1.43;;
10041;SDS011;5061;49.068;12.058;2023-03-31T15:34:40;1.43;;;0.97;;
10041;SDS011;5061;49.068;12.058;2023-03-31T15:37:56;3.00;;;1.10;;
10041;SDS011;5061;49.068;12.058;2023-03-31T15:41:18;1.17;;;1.07;;
10041;SDS011;5061;49.068;12.058;2023-03-31T15:44:44;2.07;;;0.90;;
10041;SDS011;5061;49.068;12.058;2023-03-31T15:48:08;10.93;;;1.53;;
10041;SDS011;5061;49.068;12.058;2023-03-31T15:51:39;3.53;;;1.10;;
10041;SDS011;5061;49.068;12.058;2023-03-31T15:55:45;1.63;;;1.13;;
10041;SDS011;5061;49.068;12.058;2023-03-31T15:59:22;3.10;;;1.27;;
10041;SDS011;5061;49.068;12.058;2023-03-31T16:02:44;3.23;;;1.37;;
10041;SDS011;5061;49.068;12.058;2023-03-31T16:13:11;4.40;;;1.40;;
10041;SDS011;5061;49.068;12.058;2023-03-31T16:16:46;2.30;;;1.10;;
10041;SDS011;5061;49.068;12.058;2023-03-31T16:23:48;2.10;;;0.90;;
10041;SDS011;5061;49.068;12.058;2023-03-31T16:27:12;1.20;;;0.93;;
10041;SDS011;5061;49.068;12.058;2023-03-31T16:30:35;2.60;;;1.10;;
10041;SDS011;5061;49.068;12.058;2023-03-31T16:34:01;1.30;;;1.00;;
10041;SDS011;5061;49.068;12.058;2023-03-31T16:37:26;2.27;;;1.27;;
10041;SDS011;5061;49.068;12.058;2023-03-31T16:40:59;2.00;;;1.10;;
10041;SDS011;5061;49.068;12.058;2023-03-31T16:44:20;1.63;;;0.90;;
10041;SDS011;5061;49.068;12.058;2023-03-31T16:47:41;3.10;;;1.10;;
10041;SDS011;5061;49.068;12.058;2023-03-31T16:51:01;2.60;;;1.40;;
10041;SDS011;5061;49.068;12.058;2023-03-31T16:54:23;3.17;;;1.13;;
10041;SDS011;5061;49.068;12.058;2023-03-31T16:57:43;1.10;;;0.80;;
10041;SDS011;5061;49.068;12.058;2023-03-31T17:01:05;1.53;;;1.00;;
10041;SDS011;5061;49.068;12.058;2023-03-31T17:04:27;2.10;;;0.90;;
10041;SDS011;5061;49.068;12.058;2023-03-31T17:07:48;3.93;;;1.00;;
10041;SDS011;5061;49.068;12.058;2023-03-31T17:11:09;2.77;;;0.90;;
10041;SDS011;5061;49.068;12.058;2023-03-31T17:14:33;1.87;;;1.00;;
10041;SDS011;5061;49.068;12.058;2023-03-31T17:17:53;2.93;;;1.00;;
10041;SDS011;5061;49.068;12.058;2023-03-31T17:21:15;1.90;;;0.90;;
10041;SDS011;5061;49.068;12.058;2023-03-31T17:24:38;3.07;;;1.00;;
10041;SDS011;5061;49.068;12.058;2023-03-31T17:27:58;1.87;;;0.90;;
10041;SDS011;5061;49.068;12.058;2023-03-31T17:31:20;2.87;;;0.90;;
10041;SDS011;5061;49.068;12.058;2023-03-31T17:34:41;1.30;;;1.20;;
10041;SDS011;5061;49.068;12.058;2023-03-31T17:38:01;5.50;;;1.07;;
10041;SDS011;5061;49.068;12.058;2023-03-31T17:41:23;1.90;;;1.00;;
10041;SDS011;5061;49.068;12.058;2023-03-31T17:44:44;1.60;;;1.10;;
10041;SDS011;5061;49.068;12.058;2023-03-31T17:48:06;4.57;;;1.00;;
10041;SDS011;5061;49.068;12.058;2023-03-31T17:51:28;1.90;;;0.90;;
10041;SDS011;5061;49.068;12.058;2023-03-31T17:54:53;1.57;;;0.90;;
10041;SDS011;5061;49.068;12.058;2023-03-31T17:58:16;3.10;;;1.30;;
10041;SDS011;5061;49.068;12.058;2023-03-31T18:01:36;1.87;;;1.10;;
10041;SDS011;5061;49.068;12.058;2023-03-31T18:04:57;2.10;;;0.90;;
10041;SDS011;5061;49.068;12.058;2023-03-31T18:08:18;0.90;;;0.80;;
10041;SDS011;5061;49.068;12.058;2023-03-31T18:11:39;2.83;;;1.10;;
10041;SDS011;5061;49.068;12.058;2023-03-31T18:14:59;1.00;;;0.80;;
10041;SDS011;5061;49.068;12.058;2023-03-31T18:18:21;2.50;;;1.00;;
10041;SDS011;5061;49.068;12.058;2023-03-31T18:21:45;1.27;;;0.90;;
10041;SDS011;5061;49.068;12.058;2023-03-31T18:25:06;0.87;;;0.77;;
10041;SDS011;5061;49.068;12.058;2023-03-31T18:28:27;0.80;;;0.73;;
10041;SDS011;5061;49.068;12.058;2023-03-31T18:31:48;0.90;;;0.80;;
10041;SDS011;5061;49.068;12.058;2023-03-31T18:35:08;1.30;;;0.80;;
10041;SDS011;5061;49.068;12.058;2023-03-31T18:38:29;3.53;;;1.20;;
10041;SDS011;5061;49.068;12.058;2023-03-31T18:41:51;0.83;;;0.70;;
10041;SDS011;5061;49.068;12.058;2023-03-31T18:45:13;1.17;;;0.80;;
10041;SDS011;5061;49.068;12.058;2023-03-31T18:48:33;3.23;;;1.10;;
10041;SDS011;5061;49.068;12.058;2023-03-31T18:51:54;2.50;;;1.20;;
10041;SDS011;5061;49.068;12.058;2023-03-31T18:55:16;1.97;;;0.90;;
10041;SDS011;5061;49.068;12.058;2023-03-31T18:58:37;1.27;;;1.00;;
10041;SDS011;5061;49.068;12.058;2023-03-31T19:01:58;1.10;;;0.93;;
10041;SDS011;5061;49.068;12.058;2023-03-31T19:05:18;1.13;;;0.90;;
10041;SDS011;5061;49.068;12.058;2023-03-31T19:08:39;1.40;;;0.87;;
10041;SDS011;5061;49.068;12.058;2023-03-31T19:12:00;1.00;;;0.90;;
10041;SDS011;5061;49.068;12.058;2023-03-31T19:15:21;1.40;;;1.00;;
10041;SDS011;5061;49.068;12.058;2023-03-31T19:18:42;2.00;;;0.90;;
10041;SDS011;5061;49.068;12.058;2023-03-31T19:22:02;1.43;;;0.70;;
10041;SDS011;5061;49.068;12.058;2023-03-31T19:25:24;1.23;;;1.10;;
10041;SDS011;5061;49.068;12.058;2023-03-31T19:28:44;2.03;;;1.00;;
10041;SDS011;5061;49.068;12.058;2023-03-31T19:32:06;1.30;;;0.93;;
10041;SDS011;5061;49.068;12.058;2023-03-31T19:35:27;1.93;;;0.90;;
10041;SDS011;5061;49.068;12.058;2023-03-31T19:38:49;1.63;;;0.80;;
10041;SDS011;5061;49.068;12.058;2023-03-31T19:42:09;2.20;;;0.83;;
10041;SDS011;5061;49.068;12.058;2023-03-31T19:45:30;1.50;;;0.90;;
10041;SDS011;5061;49.068;12.058;2023-03-31T19:48:57;2.40;;;0.97;;
10041;SDS011;5061;49.068;12.058;2023-03-31T19:52:18;1.40;;;0.70;;
10041;SDS011;5061;49.068;12.058;2023-03-31T19:55:39;1.03;;;0.87;;
10041;SDS011;5061;49.068;12.058;2023-03-31T19:59:01;1.20;;;1.03;;
10041;SDS011;5061;49.068;12.058;2023-03-31T20:02:22;1.27;;;0.80;;
10041;SDS011;5061;49.068;12.058;2023-03-31T20:05:43;2.97;;;1.10;;
10041;SDS011;5061;49.068;12.058;2023-03-31T20:09:03;1.57;;;0.80;;
10041;SDS011;5061;49.068;12.058;2023-03-31T20:12:25;0.90;;;0.80;;
10041;SDS011;5061;49.068;12.058;2023-03-31T20:15:46;2.30;;;0.90;;
10041;SDS011;5061;49.068;12.058;2023-03-31T20:19:07;1.27;;;1.10;;
10041;SDS011;5061;49.068;12.058;2023-03-31T20:22:34;2.30;;;1.17;;
10041;SDS011;5061;49.068;12.058;2023-03-31T20:25:54;2.77;;;1.10;;
10041;SDS011;5061;49.068;12.058;2023-03-31T20:29:15;2.37;;;1.00;;
10041;SDS011;5061;49.068;12.058;2023-03-31T20:32:39;2.43;;;1.20;;
10041;SDS011;5061;49.068;12.058;2023-03-31T20:36:01;2.50;;;1.20;;
10041;SDS011;5061;49.068;12.058;2023-03-31T20:39:33;1.63;;;1.10;;
10041;SDS011;5061;49.068;12.058;2023-03-31T20:42:54;1.20;;;1.00;;
10041;SDS011;5061;49.068;12.058;2023-03-31T20:46:15;1.60;;;1.00;;
10041;SDS011;5061;49.068;12.058;2023-03-31T20:49:36;1.83;;;1.03;;
10041;SDS011;5061;49.068;12.058;2023-03-31T20:52:57;3.13;;;1.13;;
10041;SDS011;5061;49.068;12.058;2023-03-31T20:56:19;2.70;;;0.80;;
10041;SDS011;5061;49.068;12.058;2023-03-31T20:59:43;1.83;;;0.90;;
10041;SDS011;5061;49.068;12.058;2023-03-31T21:03:04;1.23;;;0.90;;
10041;SDS011;5061;49.068;12.058;2023-03-31T21:06:26;1.20;;;0.93;;
10041;SDS011;5061;49.068;12.058;2023-03-31T21:09:48;1.03;;;0.80;;
10041;SDS011;5061;49.068;12.058;2023-03-31T21:13:11;1.93;;;0.80;;
10041;SDS011;5061;49.068;12.058;2023-03-31T21:16:39;0.90;;;0.70;;
10041;SDS011;5061;49.068;12.058;2023-03-31T21:20:03;0.97;;;0.70;;
10041;SDS011;5061;49.068;12.058;2023-03-31T21:23:25;2.70;;;0.90;;
10041;SDS011;5061;49.068;12.058;2023-03-31T21:26:47;1.40;;;0.80;;
10041;SDS011;5061;49.068;12.058;2023-03-31T21:30:08;1.07;;;0.80;;
10041;SDS011;5061;49.068;12.058;2023-03-31T21:33:30;2.60;;;1.00;;
10041;SDS011;5061;49.068;12.058;2023-03-31T21:36:52;1.10;;;0.90;;
10041;SDS011;5061;49.068;12.058;2023-03-31T21:40:13;1.10;;;0.90;;
10041;SDS011;5061;49.068;12.058;2023-03-31T21:43:35;0.90;;;0.80;;
10041;SDS011;5061;49.068;12.058;2023-03-31T21:46:57;1.97;;;1.10;;
10041;SDS011;5061;49.068;12.058;2023-03-31T21:50:18;1.20;;;1.00;;
10041;SDS011;5061;49.068;12.058;2023-03-31T21:53:39;1.57;;;0.80;;
10041;SDS011;5061;49.068;12.058;2023-03-31T21:56:59;1.43;;;0.93;;
10041;SDS011;5061;49.068;12.058;2023-03-31T22:00:20;0.80;;;0.70;;
10041;SDS011;5061;49.068;12.058;2023-03-31T22:03:44;3.03;;;0.90;;
10041;SDS011;5061;49.068;12.058;2023-03-31T22:07:07;1.37;;;0.90;;
10041;SDS011;5061;49.068;12.058;2023-03-31T22:10:31;2.13;;;0.80;;
10041;SDS011;5061;49.068;12.058;2023-03-31T22:13:52;1.00;;;0.90;;
10041;SDS011;5061;49.068;12.058;2023-03-31T22:17:13;1.30;;;1.03;;
10041;SDS011;5061;49.068;12.058;2023-03-31T22:20:39;0.97;;;0.90;;
10041;SDS011;5061;49.068;12.058;2023-03-31T22:24:04;1.30;;;1.00;;
10041;SDS011;5061;49.068;12.058;2023-03-31T22:27:29;2.20;;;1.20;;
10041;SDS011;5061;49.068;12.058;2023-03-31T22:30:50;1.53;;;0.90;;
10041;SDS011;5061;49.068;12.058;2023-03-31T22:34:12;1.43;;;0.90;;
10041;SDS011;5061;49.068;12.058;2023-03-31T22:37:39;2.70;;;1.10;;
10041;SDS011;5061;49.068;12.058;2023-03-31T22:41:00;2.50;;;1.00;;
10041;SDS011;5061;49.068;12.058;2023-03-31T22:44:25;2.30;;;1.17;;
10041;SDS011;5061;49.068;12.058;2023-03-31T22:48:05;2.40;;;1.33;;
10041;SDS011;5061;49.068;12.058;2023-03-31T22:51:52;3.57;;;0.90;;
10041;SDS011;5061;49.068;12.058;2023-03-31T22:55:31;3.70;;;1.20;;
10041;SDS011;5061;49.068;12.058;2023-03-31T22:59:08;2.20;;;0.90;;
10041;SDS011;5061;49.068;12.058;2023-03-31T23:02:30;3.27;;;1.10;;
10041;SDS011;5061;49.068;12.058;2023-03-31T23:05:52;2.60;;;1.20;;
10041;SDS011;5061;49.068;12.058;2023-03-31T23:09:13;4.80;;;1.17;;
10041;SDS011;5061;49.068;12.058;2023-03-31T23:12:34;4.60;;;1.50;;
10041;SDS011;5061;49.068;12.058;2023-03-31T23:16:01;1.50;;;1.10;;
10041;SDS011;5061;49.068;12.058;2023-03-31T23:19:24;1.90;;;0.87;;
10041;SDS011;5061;49.068;12.058;2023-03-31T23:22:47;2.53;;;1.00;;
10041;SDS011;5061;49.068;12.058;2023-03-31T23:26:12;2.40;;;1.10;;
10041;SDS011;5061;49.068;12.058;2023-03-31T23:29:34;3.13;;;0.90;;
10041;SDS011;5061;49.068;12.058;2023-03-31T23:32:55;3.27;;;1.00;;
10041;SDS011;5061;49.068;12.058;2023-03-31T23:36:17;2.23;;;1.30;;
10041;SDS011;5061;49.068;12.058;2023-03-31T23:39:40;3.30;;;1.17;;
10041;SDS011;5061;49.068;12.058;2023-03-31T23:43:03;1.50;;;1.00;;
10041;SDS011;5061;49.068;12.058;2023-03-31T23:46:24;2.23;;;1.00;;
10041;SDS011;5061;49.068;12.058;2023-03-31T23:49:45;1.67;;;1.10;;